createdAt,value
2022-07-30T00:00:52.650Z,956.3858032
2022-07-30T00:01:54.286Z,956.4029541
2022-07-30T00:02:55.028Z,956.3973999
2022-07-30T00:03:55.983Z,956.3596191
2022-07-30T00:04:56.795Z,956.3602905
2022-07-30T00:05:57.712Z,956.3629761
2022-07-30T00:06:58.880Z,956.3596191
2022-07-30T00:07:59.234Z,956.3881836
2022-07-30T00:09:00.095Z,956.3973999
2022-07-30T00:10:01.007Z,956.3695068
2022-07-30T00:11:01.929Z,956.4204102
2022-07-30T00:12:03.784Z,956.375061
2022-07-30T00:13:04.498Z,956.4006348
2022-07-30T00:14:05.313Z,956.37677
2022-07-30T00:15:06.192Z,956.3447876
2022-07-30T00:16:07.751Z,956.3965454
2022-07-30T00:17:08.748Z,956.3093872
2022-07-30T00:18:40.212Z,956.255127
2022-07-30T00:19:41.120Z,956.3010864
2022-07-30T00:20:42.851Z,956.329834
2022-07-30T00:21:43.672Z,956.3364258
2022-07-30T00:22:44.471Z,956.2854614
2022-07-30T00:24:01.493Z,956.2787476
2022-07-30T00:24:46.957Z,956.2919312
2022-07-30T00:25:47.805Z,956.2583008
2022-07-30T00:26:48.696Z,956.3026733
2022-07-30T00:27:49.540Z,956.2878418
2022-07-30T00:28:50.389Z,956.3131104
2022-07-30T00:29:51.181Z,956.2550049
2022-07-30T00:30:52.754Z,956.3033447
2022-07-30T00:31:53.832Z,956.2895508
2022-07-30T00:32:54.721Z,956.34198
2022-07-30T00:33:55.504Z,956.3109131
2022-07-30T00:34:56.249Z,956.2820435
2022-07-30T00:35:57.106Z,956.279541
2022-07-30T00:36:58.424Z,956.3101807
2022-07-30T00:37:58.899Z,956.2429199
2022-07-30T00:38:59.632Z,956.2846069
2022-07-30T00:40:00.391Z,956.2977905
2022-07-30T00:41:01.372Z,956.3150024
2022-07-30T00:42:03.237Z,956.2560425
2022-07-30T00:43:04.112Z,956.3151855
2022-07-30T00:44:05.673Z,956.3027954
2022-07-30T00:45:06.464Z,956.2609253
2022-07-30T00:46:07.314Z,956.2865601
2022-07-30T00:47:08.823Z,956.2675171
2022-07-30T00:48:40.180Z,956.2963867
2022-07-30T00:49:44.276Z,956.2315674
2022-07-30T00:50:42.878Z,956.2759399
2022-07-30T00:51:44.328Z,956.227356
2022-07-30T00:52:45.185Z,956.2283325
2022-07-30T00:53:46.027Z,956.2293091
2022-07-30T00:54:46.842Z,956.2597046
2022-07-30T00:55:47.453Z,956.2711792
2022-07-30T00:56:48.332Z,956.2734985
2022-07-30T00:57:49.751Z,956.2489014
2022-07-30T00:58:50.642Z,956.2761841
2022-07-30T00:59:51.358Z,956.2384644
2022-07-30T01:00:52.140Z,956.2615356
2022-07-30T01:01:53.858Z,956.2318726
2022-07-30T01:02:54.662Z,956.2631836
2022-07-30T01:03:55.536Z,956.2581177
2022-07-30T01:04:56.359Z,956.2402344
2022-07-30T01:05:57.125Z,956.2245483
2022-07-30T01:06:58.423Z,956.2745361
2022-07-30T01:07:58.894Z,956.2789917
2022-07-30T01:08:59.793Z,956.2617188
2022-07-30T01:10:00.698Z,956.2821655
2022-07-30T01:11:01.342Z,956.2599487
2022-07-30T01:12:02.731Z,956.2952271
2022-07-30T01:13:04.277Z,956.2855225
2022-07-30T01:14:05.190Z,956.2888794
2022-07-30T01:15:06.020Z,956.3043823
2022-07-30T01:16:06.966Z,956.2804565
2022-07-30T01:17:07.808Z,956.2806396
2022-07-30T01:18:39.696Z,956.2980957
2022-07-30T01:19:40.559Z,956.2642822
2022-07-30T01:20:41.296Z,956.2684937
2022-07-30T01:21:42.084Z,956.239624
2022-07-30T01:22:43.740Z,956.239624
2022-07-30T01:23:44.602Z,956.2034302
2022-07-30T01:24:45.542Z,956.210022
2022-07-30T01:25:46.335Z,956.1820068
2022-07-30T01:26:47.110Z,956.1912231
2022-07-30T01:27:47.901Z,956.1763916
2022-07-30T01:28:48.798Z,956.1567383
2022-07-30T01:29:49.672Z,956.1870117
2022-07-30T01:30:50.514Z,956.1525269
2022-07-30T01:31:51.912Z,956.1417236
2022-07-30T01:32:52.652Z,956.1328125
2022-07-30T01:33:53.597Z,956.1564941
2022-07-30T01:34:54.492Z,956.1212769
2022-07-30T01:35:55.284Z,956.164917
2022-07-30T01:36:56.060Z,956.1501465
2022-07-30T01:37:56.888Z,956.1482544
2022-07-30T01:38:57.744Z,956.1467285
2022-07-30T01:39:58.631Z,956.1506958
2022-07-30T01:40:59.481Z,956.1278076
2022-07-30T01:42:01.316Z,956.1245117
2022-07-30T01:43:02.053Z,956.1387329
2022-07-30T01:44:02.878Z,956.1213989
2022-07-30T01:45:03.824Z,956.0974731
2022-07-30T01:46:05.267Z,956.102478
2022-07-30T01:47:05.995Z,956.0926514
2022-07-30T01:48:07.677Z,956.0497437
2022-07-30T01:49:39.121Z,956.0491943
2022-07-30T01:50:40.046Z,956.0276489
2022-07-30T01:51:40.922Z,955.994873
2022-07-30T01:52:42.687Z,955.9742432
2022-07-30T01:53:43.463Z,955.9807739
2022-07-30T01:54:44.313Z,955.96521
2022-07-30T01:55:45.476Z,955.994873
2022-07-30T01:56:46.129Z,956.0095825
2022-07-30T01:57:46.907Z,956.0047607
2022-07-30T01:58:47.688Z,956.0195313
2022-07-30T01:59:48.520Z,955.9743652
2022-07-30T02:00:49.488Z,955.9984131
2022-07-30T02:01:50.216Z,955.9685669
2022-07-30T02:02:51.726Z,955.9572144
2022-07-30T02:03:52.654Z,955.9753418
2022-07-30T02:04:53.327Z,955.9951782
2022-07-30T02:05:54.324Z,955.9637451
2022-07-30T02:06:55.188Z,955.9934082
2022-07-30T02:07:55.997Z,955.9829712
2022-07-30T02:08:57.698Z,955.986084
2022-07-30T02:09:58.462Z,955.9662476
2022-07-30T02:10:59.623Z,955.9646606
2022-07-30T02:12:00.362Z,955.9375
2022-07-30T02:13:01.764Z,955.9606323
2022-07-30T02:14:02.598Z,955.9992065
2022-07-30T02:15:03.447Z,955.9642334
2022-07-30T02:16:04.374Z,955.9589233
2022-07-30T02:17:05.159Z,955.9376831
2022-07-30T02:18:06.831Z,955.9036865
2022-07-30T02:19:08.063Z,955.9277954
2022-07-30T02:20:39.352Z,955.8933105
2022-07-30T02:21:40.309Z,955.9013062
2022-07-30T02:22:41.998Z,955.9129639
2022-07-30T02:23:42.793Z,955.8991699
2022-07-30T02:24:43.559Z,955.9277954
2022-07-30T02:25:44.358Z,955.8917236
2022-07-30T02:26:45.273Z,955.9285889
2022-07-30T02:27:46.129Z,955.9229736
2022-07-30T02:28:46.980Z,955.9188232
2022-07-30T02:29:47.707Z,955.8983765
2022-07-30T02:30:48.724Z,955.8925171
2022-07-30T02:31:49.775Z,955.9320068
2022-07-30T02:32:51.289Z,955.9032593
2022-07-30T02:33:52.157Z,955.9517212
2022-07-30T02:34:52.975Z,955.8812256
2022-07-30T02:35:53.809Z,955.9354858
2022-07-30T02:36:54.690Z,955.9551392
2022-07-30T02:37:56.291Z,955.9403076
2022-07-30T02:38:57.172Z,955.975647
2022-07-30T02:39:58.036Z,955.975647
2022-07-30T02:40:58.799Z,955.9674072
2022-07-30T02:41:59.579Z,955.9994507
2022-07-30T02:43:01.290Z,956.0054932
2022-07-30T02:44:02.148Z,956.0307617
2022-07-30T02:45:03.807Z,956.0292358
2022-07-30T02:46:04.566Z,956.0308838
2022-07-30T02:47:05.560Z,956.0578003
2022-07-30T02:48:06.271Z,956.0390625
2022-07-30T02:49:07.287Z,956.0248413
2022-07-30T02:50:39.212Z,956.0413208
2022-07-30T02:51:39.967Z,956.0438843
2022-07-30T02:52:41.874Z,956.0471191
2022-07-30T02:53:42.701Z,956.0487671
2022-07-30T02:54:43.555Z,956.0859375
2022-07-30T02:55:45.321Z,956.0751343
2022-07-30T02:56:46.068Z,956.116272
2022-07-30T02:57:47.036Z,956.102356
2022-07-30T02:58:47.879Z,956.1391602
2022-07-30T02:59:48.779Z,956.1309204
2022-07-30T03:00:49.638Z,956.1571045
2022-07-30T03:01:50.462Z,956.1473389
2022-07-30T03:02:51.816Z,956.145752
2022-07-30T03:03:52.652Z,956.1342163
2022-07-30T03:04:54.325Z,956.1523438
2022-07-30T03:05:55.172Z,956.1415405
2022-07-30T03:06:56.055Z,956.128418
2022-07-30T03:07:57.846Z,956.0906982
2022-07-30T03:08:58.852Z,956.1317749
2022-07-30T03:09:59.731Z,956.1218872
2022-07-30T03:11:00.573Z,956.0915527
2022-07-30T03:12:01.417Z,956.1343994
2022-07-30T03:13:03.297Z,956.128418
2022-07-30T03:14:04.182Z,956.116394
2022-07-30T03:15:05.141Z,956.1243896
2022-07-30T03:16:06.791Z,956.1238403
2022-07-30T03:17:38.035Z,956.1261597
2022-07-30T03:18:39.022Z,956.1148682
2022-07-30T03:19:39.886Z,956.1211548
2022-07-30T03:20:41.338Z,956.1173706
2022-07-30T03:21:42.167Z,956.1245117
2022-07-30T03:22:43.854Z,956.1105347
2022-07-30T03:23:44.829Z,956.102417
2022-07-30T03:24:45.673Z,956.1015015
2022-07-30T03:25:46.549Z,956.1113892
2022-07-30T03:26:47.561Z,956.1040649
2022-07-30T03:27:48.178Z,956.090332
2022-07-30T03:28:49.093Z,956.1115112
2022-07-30T03:29:49.958Z,956.0802612
2022-07-30T03:30:50.919Z,956.116394
2022-07-30T03:31:51.786Z,956.088623
2022-07-30T03:32:53.359Z,956.0681152
2022-07-30T03:33:54.256Z,956.0826416
2022-07-30T03:34:55.122Z,956.0951538
2022-07-30T03:35:56.023Z,956.1105957
2022-07-30T03:36:56.828Z,956.0992432
2022-07-30T03:37:58.337Z,956.1068115
2022-07-30T03:38:59.227Z,956.1091919
2022-07-30T03:40:00.158Z,956.1213989
2022-07-30T03:41:01.044Z,956.1148682
2022-07-30T03:42:02.068Z,956.1437378
2022-07-30T03:43:03.376Z,956.1503296
2022-07-30T03:44:04.236Z,956.1403198
2022-07-30T03:45:05.093Z,956.1937256
2022-07-30T03:46:08.307Z,956.1871948
2022-07-30T03:47:38.457Z,956.2396851
2022-07-30T03:48:39.350Z,956.2595215
2022-07-30T03:49:40.143Z,956.2958374
2022-07-30T03:50:41.873Z,956.274353
2022-07-30T03:51:42.705Z,956.27948
2022-07-30T03:52:44.335Z,956.2907715
2022-07-30T03:53:45.105Z,956.2803345
2022-07-30T03:54:46.020Z,956.25
2022-07-30T03:55:46.834Z,956.3050537
2022-07-30T03:56:47.762Z,956.3066406
2022-07-30T03:57:48.640Z,956.2776489
2022-07-30T03:58:49.431Z,956.2959595
2022-07-30T03:59:50.242Z,956.2861938
2022-07-30T04:00:51.120Z,956.2854004
2022-07-30T04:01:52.046Z,956.262207
2022-07-30T04:02:53.350Z,956.2706299
2022-07-30T04:03:54.313Z,956.2943726
2022-07-30T04:04:55.093Z,956.3395386
2022-07-30T04:05:55.952Z,956.3582764
2022-07-30T04:06:56.869Z,956.3272705
2022-07-30T04:07:57.763Z,956.3329468
2022-07-30T04:08:58.598Z,956.3248291
2022-07-30T04:09:59.440Z,956.3364258
2022-07-30T04:11:00.337Z,956.3181152
2022-07-30T04:12:01.206Z,956.3082886
2022-07-30T04:13:05.449Z,956.3337402
2022-07-30T04:14:03.732Z,956.3370361
2022-07-30T04:15:05.362Z,956.34375
2022-07-30T04:16:40.970Z,956.3279419
2022-07-30T04:17:37.733Z,956.3329468
2022-07-30T04:18:39.399Z,956.3320313
2022-07-30T04:19:40.302Z,956.3618164
2022-07-30T04:20:41.216Z,956.343811
2022-07-30T04:21:42.197Z,956.3495483
2022-07-30T04:22:43.873Z,956.3666382
2022-07-30T04:24:03.817Z,956.3526611
2022-07-30T04:24:46.238Z,956.3765869
2022-07-30T04:25:47.087Z,956.3962402
2022-07-30T04:26:47.961Z,956.3919678
2022-07-30T04:28:03.389Z,956.3838501
2022-07-30T04:28:49.874Z,956.4051514
2022-07-30T04:29:50.765Z,956.3847656
2022-07-30T04:30:51.694Z,956.4093628
2022-07-30T04:31:52.379Z,956.4110718
2022-07-30T04:32:53.255Z,956.4078369
2022-07-30T04:33:54.760Z,956.4051514
2022-07-30T04:34:55.682Z,956.4389038
2022-07-30T04:35:56.422Z,956.3895874
2022-07-30T04:36:57.236Z,956.4099731
2022-07-30T04:37:58.179Z,956.4234619
2022-07-30T04:38:59.081Z,956.4611206
2022-07-30T04:39:59.981Z,956.4692383
2022-07-30T04:41:00.886Z,956.4609985
2022-07-30T04:42:01.658Z,956.4528198
2022-07-30T04:43:03.350Z,956.4503784
2022-07-30T04:44:04.268Z,956.508728
2022-07-30T04:45:05.073Z,956.4743652
2022-07-30T04:46:06.954Z,956.5176392
2022-07-30T04:47:38.062Z,956.5292358
2022-07-30T04:48:39.030Z,956.4921875
2022-07-30T04:49:39.915Z,956.5211182
2022-07-30T04:50:41.383Z,956.5744629
2022-07-30T04:51:42.326Z,956.5512695
2022-07-30T04:52:43.208Z,956.5703735
2022-07-30T04:53:44.809Z,956.5808716
2022-07-30T04:54:45.687Z,956.6038818
2022-07-30T04:55:46.615Z,956.5881958
2022-07-30T04:57:00.998Z,956.6054688
2022-07-30T04:57:48.249Z,956.6334229
2022-07-30T04:58:49.117Z,956.6229858
2022-07-30T04:59:50.029Z,956.6491699
2022-07-30T05:00:50.882Z,956.6433105
2022-07-30T05:01:51.784Z,956.6448364
2022-07-30T05:02:52.538Z,956.6737671
2022-07-30T05:03:54.235Z,956.6425171
2022-07-30T05:04:55.217Z,956.6663818
2022-07-30T05:05:57.460Z,956.6868896
2022-07-30T05:06:56.841Z,956.6702881
2022-07-30T05:07:57.662Z,956.6950073
2022-07-30T05:08:58.608Z,956.6893921
2022-07-30T05:09:59.475Z,956.6990356
2022-07-30T05:11:01.401Z,956.7115479
2022-07-30T05:12:02.261Z,956.7137451
2022-07-30T05:13:03.011Z,956.7196655
2022-07-30T05:14:04.821Z,956.7485962
2022-07-30T05:15:05.648Z,956.7605591
2022-07-30T05:16:36.931Z,956.7254639
2022-07-30T05:17:37.804Z,956.739502
2022-07-30T05:18:39.382Z,956.7509155
2022-07-30T05:19:40.253Z,956.7565918
2022-07-30T05:20:41.157Z,956.7474976
2022-07-30T05:21:42.191Z,956.7435913
2022-07-30T05:22:43.071Z,956.7402344
2022-07-30T05:23:49.994Z,956.7375488
2022-07-30T05:24:45.723Z,956.7391968
2022-07-30T05:25:46.652Z,956.7976074
2022-07-30T05:26:47.490Z,956.7787476
2022-07-30T05:27:48.338Z,956.7451782
2022-07-30T05:28:53.618Z,956.7772827
2022-07-30T05:29:49.957Z,956.7960815
2022-07-30T05:30:50.843Z,956.7590332
2022-07-30T05:31:51.705Z,956.7779541
2022-07-30T05:32:53.272Z,956.78125
2022-07-30T05:33:54.856Z,956.7558594
2022-07-30T05:34:55.805Z,956.7895508
2022-07-30T05:35:56.700Z,956.7966919
2022-07-30T05:36:58.202Z,956.7844238
2022-07-30T05:37:58.530Z,956.7854614
2022-07-30T05:38:59.387Z,956.7556152
2022-07-30T05:40:03.364Z,956.7745361
2022-07-30T05:41:01.123Z,956.7573242
2022-07-30T05:42:02.081Z,956.7427368
2022-07-30T05:43:02.947Z,956.7754517
2022-07-30T05:44:04.279Z,956.7598267
2022-07-30T05:45:05.168Z,956.7697144
2022-07-30T05:46:37.421Z,956.7803345
2022-07-30T05:47:38.285Z,956.795105
2022-07-30T05:48:39.171Z,956.8083496
2022-07-30T05:49:39.896Z,956.8181152
2022-07-30T05:50:40.806Z,956.796875
2022-07-30T05:51:42.345Z,956.8024292
2022-07-30T05:52:43.284Z,956.8130493
2022-07-30T05:53:44.901Z,956.822876
2022-07-30T05:54:45.811Z,956.8188477
2022-07-30T05:55:46.737Z,956.8040771
2022-07-30T05:56:47.667Z,956.8238525
2022-07-30T05:57:49.325Z,956.8468628
2022-07-30T05:58:50.228Z,956.8319702
2022-07-30T05:59:51.100Z,956.8213501
2022-07-30T06:00:51.974Z,956.8181152
2022-07-30T06:01:53.004Z,956.840332
2022-07-30T06:02:53.889Z,956.8401489
2022-07-30T06:03:55.419Z,956.8688965
2022-07-30T06:04:56.332Z,956.8920288
2022-07-30T06:05:57.242Z,956.8814087
2022-07-30T06:06:58.355Z,956.9057617
2022-07-30T06:07:59.003Z,956.930603
2022-07-30T06:08:59.924Z,956.9478149
2022-07-30T06:10:00.694Z,956.9312744
2022-07-30T06:11:01.546Z,956.9451294
2022-07-30T06:12:02.422Z,956.9310913
2022-07-30T06:13:03.336Z,956.975647
2022-07-30T06:14:04.960Z,956.958252
2022-07-30T06:15:36.341Z,956.9804077
2022-07-30T06:16:37.868Z,956.9731445
2022-07-30T06:17:41.447Z,956.9991455
2022-07-30T06:18:39.678Z,956.9827881
2022-07-30T06:19:40.562Z,956.9951782
2022-07-30T06:20:42.275Z,956.9869385
2022-07-30T06:22:05.899Z,957.0043945
2022-07-30T06:22:44.015Z,957.0028076
2022-07-30T06:23:45.932Z,957.0248413
2022-07-30T06:24:46.819Z,957.019043
2022-07-30T06:25:47.585Z,957.0140381
2022-07-30T06:26:48.487Z,957.0322876
2022-07-30T06:27:49.432Z,957.0273438
2022-07-30T06:28:50.390Z,956.9925537
2022-07-30T06:29:51.389Z,956.9976807
2022-07-30T06:30:52.236Z,957.003418
2022-07-30T06:31:53.021Z,957.0031128
2022-07-30T06:32:53.905Z,957.0140381
2022-07-30T06:33:55.398Z,957.0032959
2022-07-30T06:35:04.000Z,957.0237427
2022-07-30T06:35:57.166Z,957.0368652
2022-07-30T06:36:58.338Z,957.0615845
2022-07-30T06:38:07.165Z,957.0505981
2022-07-30T06:38:59.732Z,957.0513916
2022-07-30T06:40:00.732Z,957.071167
2022-07-30T06:41:03.009Z,957.0695801
2022-07-30T06:42:02.365Z,957.0463867
2022-07-30T06:43:03.246Z,957.0758667
2022-07-30T06:44:04.905Z,957.0404663
2022-07-30T06:45:36.287Z,957.0356445
2022-07-30T06:46:37.151Z,957.0223389
2022-07-30T06:47:38.775Z,957.0158081
2022-07-30T06:48:39.809Z,957.0345459
2022-07-30T06:49:40.689Z,957.0706787
2022-07-30T06:50:42.658Z,957.0862427
2022-07-30T06:51:44.388Z,957.0714111
2022-07-30T06:52:45.285Z,957.1034546
2022-07-30T06:53:46.162Z,957.0803223
2022-07-30T06:54:47.852Z,957.0892944
2022-07-30T06:55:48.774Z,957.1116943
2022-07-30T06:56:49.567Z,957.0621338
2022-07-30T06:57:50.425Z,957.0809326
2022-07-30T06:58:51.364Z,957.1049194
2022-07-30T06:59:57.074Z,957.100769
2022-07-30T07:00:53.139Z,957.0997925
2022-07-30T07:01:53.944Z,957.1277466
2022-07-30T07:02:54.750Z,957.1152954
2022-07-30T07:03:56.451Z,957.1227417
2022-07-30T07:04:57.347Z,957.1496582
2022-07-30T07:05:58.261Z,957.1735229
2022-07-30T07:06:59.453Z,957.1710815
2022-07-30T07:08:00.041Z,957.211853
2022-07-30T07:09:00.949Z,957.2332764
2022-07-30T07:10:01.879Z,957.2304077
2022-07-30T07:11:02.851Z,957.1981201
2022-07-30T07:12:03.861Z,957.1668091
2022-07-30T07:13:35.471Z,957.2039185
2022-07-30T07:14:37.349Z,957.2053223
2022-07-30T07:15:38.120Z,957.2142334
2022-07-30T07:16:38.952Z,957.2001343
2022-07-30T07:17:40.631Z,957.2001343
2022-07-30T07:18:41.781Z,957.1737671
2022-07-30T07:20:01.493Z,957.2182007
2022-07-30T07:20:43.418Z,957.1959229
2022-07-30T07:21:44.923Z,957.1520996
2022-07-30T07:22:45.716Z,957.152832
2022-07-30T07:23:46.567Z,957.152832
2022-07-30T07:24:48.311Z,957.1578979
2022-07-30T07:25:49.271Z,957.1115723
2022-07-30T07:26:50.038Z,957.1412354
2022-07-30T07:28:12.793Z,957.1724243
2022-07-30T07:28:51.650Z,957.1442261
2022-07-30T07:30:05.464Z,957.1754761
2022-07-30T07:30:53.454Z,957.1894531
2022-07-30T07:32:06.237Z,957.2056274
2022-07-30T07:32:54.925Z,957.2154541
2022-07-30T07:33:55.710Z,957.185791
2022-07-30T07:34:57.343Z,957.2053833
2022-07-30T07:35:58.193Z,957.1740723
2022-07-30T07:36:59.487Z,957.2301025
2022-07-30T07:37:59.849Z,957.2603149
2022-07-30T07:39:00.726Z,957.2406006
2022-07-30T07:40:01.622Z,957.2512207
2022-07-30T07:41:02.425Z,957.2667236
2022-07-30T07:42:03.225Z,957.2468872
2022-07-30T07:43:04.480Z,957.2301636
2022-07-30T07:44:36.632Z,957.1931152
2022-07-30T07:45:38.457Z,957.2034302
2022-07-30T07:46:39.141Z,957.1942749
2022-07-30T07:47:40.017Z,957.2075806
2022-07-30T07:48:40.891Z,957.1861572
2022-07-30T07:49:42.910Z,957.2000122
2022-07-30T07:50:43.743Z,957.1933594
2022-07-30T07:51:47.619Z,957.1206055
2022-07-30T07:52:45.468Z,957.1188965
2022-07-30T07:53:55.859Z,957.1451416
2022-07-30T07:54:47.757Z,957.1221924
2022-07-30T07:55:48.607Z,957.0843506
2022-07-30T07:56:49.462Z,957.1066895
2022-07-30T07:57:50.339Z,957.1098633
2022-07-30T07:58:55.036Z,957.1065063
2022-07-30T07:59:51.864Z,957.1144409
2022-07-30T08:00:52.727Z,957.0764771
2022-07-30T08:01:53.547Z,957.0716553
2022-07-30T08:02:54.686Z,957.125
2022-07-30T08:03:55.045Z,957.1331177
2022-07-30T08:04:56.852Z,957.1339111
2022-07-30T08:06:05.735Z,957.088501
2022-07-30T08:06:58.796Z,957.0776367
2022-07-30T08:07:59.295Z,957.0661011
2022-07-30T08:09:00.024Z,957.0890503
2022-07-30T08:10:00.863Z,957.0957642
2022-07-30T08:11:01.747Z,957.1081543
2022-07-30T08:12:02.584Z,957.0864258
2022-07-30T08:13:03.466Z,957.0591431
2022-07-30T08:14:35.398Z,957.055603
2022-07-30T08:15:36.142Z,957.0942383
2022-07-30T08:16:37.051Z,957.0900269
2022-07-30T08:17:37.882Z,957.0733032
2022-07-30T08:18:39.314Z,957.0502319
2022-07-30T08:19:40.102Z,957.0690918
2022-07-30T08:20:41.000Z,957.0574951
2022-07-30T08:21:42.022Z,957.0432739
2022-07-30T08:22:42.858Z,957.0284424
2022-07-30T08:23:43.713Z,957.0679932
2022-07-30T08:24:45.422Z,957.0488892
2022-07-30T08:25:46.264Z,957.0823364
2022-07-30T08:26:47.057Z,957.078125
2022-07-30T08:27:47.896Z,957.0864868
2022-07-30T08:28:48.755Z,957.0789185
2022-07-30T08:29:49.489Z,957.0984497
2022-07-30T08:30:50.456Z,957.1182861
2022-07-30T08:31:51.187Z,957.1090698
2022-07-30T08:32:52.030Z,957.147522
2022-07-30T08:33:53.799Z,957.1571655
2022-07-30T08:34:55.399Z,957.1300049
2022-07-30T08:35:59.248Z,957.1411133
2022-07-30T08:36:57.109Z,957.1238403
2022-07-30T08:37:57.923Z,957.1252441
2022-07-30T08:38:58.754Z,957.1253052
2022-07-30T08:39:59.573Z,957.1398926
2022-07-30T08:41:00.446Z,957.1282959
2022-07-30T08:42:01.569Z,957.1429443
2022-07-30T08:43:01.991Z,957.1768799
2022-07-30T08:44:02.926Z,957.1904907
2022-07-30T08:45:35.444Z,957.1953125
2022-07-30T08:46:36.278Z,957.1841431
2022-07-30T08:47:37.059Z,957.1821899
2022-07-30T08:48:38.932Z,957.2059326
2022-07-30T08:49:40.397Z,957.192627
2022-07-30T08:50:41.037Z,957.1835938
2022-07-30T08:51:42.723Z,957.2098389
2022-07-30T08:52:44.379Z,957.2490845
2022-07-30T08:53:45.199Z,957.25
2022-07-30T08:54:46.943Z,957.2192383
2022-07-30T08:55:47.734Z,957.2315674
2022-07-30T08:56:48.497Z,957.2477417
2022-07-30T08:57:49.274Z,957.2609253
2022-07-30T08:58:50.007Z,957.2237549
2022-07-30T08:59:59.260Z,957.2377319
2022-07-30T09:00:51.581Z,957.2301025
2022-07-30T09:01:52.269Z,957.2449951
2022-07-30T09:02:53.009Z,957.2298584
2022-07-30T09:03:53.795Z,957.2017212
2022-07-30T09:04:55.419Z,957.1870117
2022-07-30T09:05:56.132Z,957.1677246
2022-07-30T09:06:56.907Z,957.1741333
2022-07-30T09:07:57.639Z,957.2086182
2022-07-30T09:08:58.403Z,957.1721802
2022-07-30T09:09:59.160Z,957.1895142
2022-07-30T09:10:59.898Z,957.1578369
2022-07-30T09:12:00.691Z,957.1628418
2022-07-30T09:13:01.470Z,957.1635132
2022-07-30T09:14:03.884Z,957.1856079
2022-07-30T09:15:04.401Z,957.1706543
2022-07-30T09:16:35.532Z,957.15979
2022-07-30T09:17:36.933Z,957.1677246
2022-07-30T09:18:37.687Z,957.1364136
2022-07-30T09:19:38.469Z,957.1459351
2022-07-30T09:20:39.304Z,957.1482544
2022-07-30T09:21:40.766Z,957.1531372
2022-07-30T09:22:41.792Z,957.1990356
2022-07-30T09:23:42.574Z,957.2276611
2022-07-30T09:24:43.407Z,957.2120361
2022-07-30T09:25:44.836Z,957.2281494
2022-07-30T09:26:45.570Z,957.2487793
2022-07-30T09:27:46.333Z,957.2567139
2022-07-30T09:28:47.102Z,957.2003174
2022-07-30T09:29:47.876Z,957.2232056
2022-07-30T09:30:48.740Z,957.2478027
2022-07-30T09:31:49.468Z,957.2434082
2022-07-30T09:32:50.248Z,957.3699341
2022-07-30T09:33:51.076Z,957.3029175
2022-07-30T09:34:52.373Z,957.3068848
2022-07-30T09:35:53.127Z,957.2736206
2022-07-30T09:36:53.945Z,957.2982788
2022-07-30T09:37:54.759Z,957.2748413
2022-07-30T09:38:55.506Z,957.2780762
2022-07-30T09:39:59.155Z,957.2235718
2022-07-30T09:40:57.516Z,957.2514648
2022-07-30T09:41:57.962Z,957.2427979
2022-07-30T09:42:58.786Z,957.2468872
2022-07-30T09:43:59.553Z,957.2358398
2022-07-30T09:45:00.893Z,957.2620239
2022-07-30T09:46:01.730Z,957.2362671
2022-07-30T09:47:02.478Z,957.2355957
2022-07-30T09:48:33.729Z,957.2479858
2022-07-30T09:49:34.487Z,957.25177
2022-07-30T09:50:35.802Z,957.2390747
2022-07-30T09:51:54.365Z,957.2603149
2022-07-30T09:52:43.882Z,957.2404175
2022-07-30T09:53:38.344Z,957.2337646
2022-07-30T09:54:39.088Z,957.199707
2022-07-30T09:55:42.100Z,957.1967773
2022-07-30T09:56:41.866Z,957.2404175
2022-07-30T09:57:50.293Z,957.2015381
2022-07-30T09:58:45.679Z,957.1921387
2022-07-30T09:59:44.353Z,957.1448364
2022-07-30T10:00:45.151Z,957.1350708
2022-07-30T10:01:49.800Z,957.1324463
2022-07-30T10:02:47.025Z,957.0736084
2022-07-30T10:03:48.529Z,957.100647
2022-07-30T10:04:48.742Z,957.09375
2022-07-30T10:05:50.299Z,957.0859375
2022-07-30T10:06:51.194Z,957.1056519
2022-07-30T10:07:52.838Z,957.0742188
2022-07-30T10:08:53.729Z,957.1282959
2022-07-30T10:09:54.509Z,957.1345215
2022-07-30T10:10:55.305Z,957.0970459
2022-07-30T10:11:56.233Z,957.126709
2022-07-30T10:12:57.051Z,957.0876465
2022-07-30T10:13:57.935Z,957.1390381
2022-07-30T10:14:58.688Z,957.1270142
2022-07-30T10:16:00.311Z,957.1230469
2022-07-30T10:17:01.231Z,957.0648193
2022-07-30T10:18:02.106Z,957.0513916
2022-07-30T10:19:40.091Z,957.0595093
2022-07-30T10:20:34.964Z,957.0653076
2022-07-30T10:21:35.997Z,957.0970459
2022-07-30T10:22:36.580Z,957.0592041
2022-07-30T10:23:39.764Z,957.0681152
2022-07-30T10:24:38.310Z,957.1012573
2022-07-30T10:25:54.805Z,957.1300049
2022-07-30T10:26:40.642Z,957.1223145
2022-07-30T10:27:41.771Z,957.1016235
2022-07-30T10:28:42.596Z,957.0800171
2022-07-30T10:29:43.478Z,957.0839233
2022-07-30T10:30:44.199Z,957.0980225
2022-07-30T10:31:48.564Z,957.1174927
2022-07-30T10:32:45.910Z,957.1001587
2022-07-30T10:33:47.477Z,957.0957642
2022-07-30T10:34:48.309Z,957.0775146
2022-07-30T10:35:49.783Z,957.0762329
2022-07-30T10:36:50.555Z,957.06604
2022-07-30T10:37:52.040Z,957.1144409
2022-07-30T10:38:53.124Z,957.0944824
2022-07-30T10:39:53.675Z,957.0901489
2022-07-30T10:40:54.425Z,957.1012573
2022-07-30T10:41:55.173Z,957.0487671
2022-07-30T10:42:56.086Z,957.0740356
2022-07-30T10:43:56.919Z,957.0438843
2022-07-30T10:44:57.700Z,957.0238037
2022-07-30T10:45:59.279Z,957.0617065
2022-07-30T10:47:00.465Z,957.09021
2022-07-30T10:48:00.972Z,957.071106
2022-07-30T10:49:01.860Z,957.0736084
2022-07-30T10:50:33.819Z,957.074707
2022-07-30T10:51:34.875Z,957.0545044
2022-07-30T10:52:35.434Z,957.0756226
2022-07-30T10:53:36.324Z,957.0800781
2022-07-30T10:54:39.760Z,957.0466919
2022-07-30T10:55:39.348Z,956.9924927
2022-07-30T10:56:39.133Z,957.0098267
2022-07-30T10:57:41.348Z,956.9564209
2022-07-30T10:58:40.825Z,956.9342041
2022-07-30T10:59:41.927Z,956.9206543
2022-07-30T11:01:44.775Z,956.9467163
2022-07-30T11:02:44.474Z,956.9718628
2022-07-30T11:03:45.334Z,956.968811
2022-07-30T11:04:46.179Z,956.9448242
2022-07-30T11:05:47.910Z,956.986084
2022-07-30T11:06:48.737Z,956.9968872
2022-07-30T11:07:49.641Z,956.9645996
2022-07-30T11:08:50.650Z,956.9787598
2022-07-30T11:10:09.278Z,956.9283447
2022-07-30T11:10:52.287Z,956.9562988
2022-07-30T11:12:16.124Z,956.9537354
2022-07-30T11:12:54.005Z,956.96698